sensor_id;sensor_type;location;lat;lon;timestamp;pressure;altitude;pressure_sealevel;temperature;humidity
41712;BME280;27399;51.516;13.670;2023-04-15T00:01:24;99340.94;;;10.23;93.12
41712;BME280;27399;51.516;13.670;2023-04-15T00:03:52;99342.72;;;10.23;93.43
41712;BME280;27399;51.516;13.670;2023-04-15T00:06:19;99336.38;;;10.27;92.92
41712;BME280;27399;51.516;13.670;2023-04-15T00:08:45;99342.44;;;10.35;92.40
41712;BME280;27399;51.516;13.670;2023-04-15T00:11:11;99342.63;;;10.28;93.15
41712;BME280;27399;51.516;13.670;2023-04-15T00:13:37;99332.13;;;10.20;93.48
41712;BME280;27399;51.516;13.670;2023-04-15T00:16:04;99331.88;;;10.31;92.84
41712;BME280;27399;51.516;13.670;2023-04-15T00:18:31;99332.75;;;10.31;92.61
41712;BME280;27399;51.516;13.670;2023-04-15T00:20:57;99330.94;;;10.33;92.21
41712;BME280;27399;51.516;13.670;2023-04-15T00:23:24;99335.28;;;10.37;92.31
41712;BME280;27399;51.516;13.670;2023-04-15T00:25:49;99326.31;;;10.04;92.74
41712;BME280;27399;51.516;13.670;2023-04-15T00:28:15;99325.78;;;10.26;92.90
41712;BME280;27399;51.516;13.670;2023-04-15T00:30:42;99324.88;;;10.27;92.52
41712;BME280;27399;51.516;13.670;2023-04-15T00:33:08;99323.16;;;10.24;92.92
41712;BME280;27399;51.516;13.670;2023-04-15T00:35:34;99322.94;;;10.33;92.33
41712;BME280;27399;51.516;13.670;2023-04-15T00:38:02;99324.69;;;10.34;92.77
41712;BME280;27399;51.516;13.670;2023-04-15T00:40:29;99321.13;;;10.34;92.75
41712;BME280;27399;51.516;13.670;2023-04-15T00:42:55;99321.03;;;10.38;92.49
41712;BME280;27399;51.516;13.670;2023-04-15T00:45:20;99323.72;;;10.38;92.36
41712;BME280;27399;51.516;13.670;2023-04-15T00:47:46;99318.44;;;10.35;92.11
41712;BME280;27399;51.516;13.670;2023-04-15T00:50:12;99313.34;;;10.26;92.80
41712;BME280;27399;51.516;13.670;2023-04-15T00:52:38;99314.03;;;10.33;92.72
41712;BME280;27399;51.516;13.670;2023-04-15T00:55:05;99310.44;;;10.35;92.09
41712;BME280;27399;51.516;13.670;2023-04-15T00:57:31;99299.19;;;10.22;92.28
41712;BME280;27399;51.516;13.670;2023-04-15T00:59:57;99306.25;;;10.25;92.75
41712;BME280;27399;51.516;13.670;2023-04-15T01:02:23;99303.72;;;10.20;93.12
41712;BME280;27399;51.516;13.670;2023-04-15T01:04:49;99312.28;;;10.33;92.86
41712;BME280;27399;51.516;13.670;2023-04-15T01:07:15;99309.91;;;10.21;92.56
41712;BME280;27399;51.516;13.670;2023-04-15T01:09:40;99303.38;;;10.34;92.21
41712;BME280;27399;51.516;13.670;2023-04-15T01:12:09;99307.28;;;10.19;93.21
41712;BME280;27399;51.516;13.670;2023-04-15T01:14:36;99308.09;;;10.23;92.48
41712;BME280;27399;51.516;13.670;2023-04-15T01:17:02;99304.22;;;10.35;92.71
41712;BME280;27399;51.516;13.670;2023-04-15T01:19:27;99304.28;;;10.33;92.66
41712;BME280;27399;51.516;13.670;2023-04-15T01:21:54;99300.88;;;10.27;93.19
41712;BME280;27399;51.516;13.670;2023-04-15T01:24:20;99301.56;;;10.35;92.69
41712;BME280;27399;51.516;13.670;2023-04-15T01:26:47;99298.09;;;10.31;92.66
41712;BME280;27399;51.516;13.670;2023-04-15T01:29:17;99300.63;;;10.37;92.61
41712;BME280;27399;51.516;13.670;2023-04-15T01:31:53;99299.59;;;10.45;92.42
41712;BME280;27399;51.516;13.670;2023-04-15T01:34:19;99295.38;;;10.34;93.22
41712;BME280;27399;51.516;13.670;2023-04-15T01:36:45;99306.06;;;10.33;92.99
41712;BME280;27399;51.516;13.670;2023-04-15T01:39:11;99301.47;;;10.39;92.94
41712;BME280;27399;51.516;13.670;2023-04-15T01:41:37;99292.56;;;10.41;92.55
41712;BME280;27399;51.516;13.670;2023-04-15T01:44:04;99291.41;;;10.51;92.19
41712;BME280;27399;51.516;13.670;2023-04-15T01:46:31;99289.06;;;10.38;92.48
41712;BME280;27399;51.516;13.670;2023-04-15T01:48:57;99279.06;;;10.48;92.50
41712;BME280;27399;51.516;13.670;2023-04-15T01:51:22;99293.16;;;10.52;92.50
41712;BME280;27399;51.516;13.670;2023-04-15T01:53:48;99284.44;;;10.47;92.54
41712;BME280;27399;51.516;13.670;2023-04-15T01:56:13;99276.31;;;10.51;92.39
41712;BME280;27399;51.516;13.670;2023-04-15T01:58:39;99275.81;;;10.35;92.96
41712;BME280;27399;51.516;13.670;2023-04-15T02:01:04;99284.31;;;10.51;92.58
41712;BME280;27399;51.516;13.670;2023-04-15T02:03:31;99274.44;;;10.53;92.37
41712;BME280;27399;51.516;13.670;2023-04-15T02:05:57;99279.75;;;10.55;92.14
41712;BME280;27399;51.516;13.670;2023-04-15T02:08:22;99270.72;;;10.61;92.28
41712;BME280;27399;51.516;13.670;2023-04-15T02:10:48;99277.03;;;10.58;91.93
41712;BME280;27399;51.516;13.670;2023-04-15T02:13:14;99280.59;;;10.57;92.12
41712;BME280;27399;51.516;13.670;2023-04-15T02:15:39;99269.94;;;10.57;92.43
41712;BME280;27399;51.516;13.670;2023-04-15T02:18:05;99275.16;;;10.60;92.38
41712;BME280;27399;51.516;13.670;2023-04-15T02:20:31;99278.00;;;10.54;92.79
41712;BME280;27399;51.516;13.670;2023-04-15T02:22:57;99275.16;;;10.60;92.25
41712;BME280;27399;51.516;13.670;2023-04-15T02:25:23;99274.38;;;10.57;92.68
41712;BME280;27399;51.516;13.670;2023-04-15T02:27:48;99267.22;;;10.59;92.65
41712;BME280;27399;51.516;13.670;2023-04-15T02:30:14;99263.69;;;10.58;92.35
41712;BME280;27399;51.516;13.670;2023-04-15T02:32:40;99269.81;;;10.62;92.42
41712;BME280;27399;51.516;13.670;2023-04-15T02:35:08;99266.31;;;10.60;92.75
41712;BME280;27399;51.516;13.670;2023-04-15T02:37:35;99264.44;;;10.63;92.58
41712;BME280;27399;51.516;13.670;2023-04-15T02:40:07;99257.28;;;10.65;92.50
41712;BME280;27399;51.516;13.670;2023-04-15T02:42:34;99267.88;;;10.68;92.51
41712;BME280;27399;51.516;13.670;2023-04-15T02:44:59;99276.78;;;10.66;92.90
41712;BME280;27399;51.516;13.670;2023-04-15T02:47:25;99272.50;;;10.60;93.00
41712;BME280;27399;51.516;13.670;2023-04-15T02:49:54;99269.16;;;10.52;93.20
41712;BME280;27399;51.516;13.670;2023-04-15T02:52:19;99271.50;;;10.64;92.94
41712;BME280;27399;51.516;13.670;2023-04-15T02:54:45;99268.78;;;10.66;92.96
41712;BME280;27399;51.516;13.670;2023-04-15T02:57:11;99265.28;;;10.65;92.78
41712;BME280;27399;51.516;13.670;2023-04-15T02:59:37;99267.88;;;10.67;92.69
41712;BME280;27399;51.516;13.670;2023-04-15T03:02:03;99269.69;;;10.66;92.69
41712;BME280;27399;51.516;13.670;2023-04-15T03:04:32;99269.59;;;10.69;92.98
41712;BME280;27399;51.516;13.670;2023-04-15T03:06:57;99266.84;;;10.73;93.16
41712;BME280;27399;51.516;13.670;2023-04-15T03:09:23;99270.53;;;10.68;93.43
41712;BME280;27399;51.516;13.670;2023-04-15T03:11:48;99266.13;;;10.66;93.27
41712;BME280;27399;51.516;13.670;2023-04-15T03:14:15;99262.41;;;10.72;93.29
41712;BME280;27399;51.516;13.670;2023-04-15T03:16:41;99270.34;;;10.75;93.38
41712;BME280;27399;51.516;13.670;2023-04-15T03:19:06;99272.03;;;10.77;92.86
41712;BME280;27399;51.516;13.670;2023-04-15T03:21:32;99269.59;;;10.69;93.85
41712;BME280;27399;51.516;13.670;2023-04-15T03:23:58;99264.09;;;10.76;93.44
41712;BME280;27399;51.516;13.670;2023-04-15T03:26:30;99265.84;;;10.77;93.18
41712;BME280;27399;51.516;13.670;2023-04-15T03:28:56;99268.47;;;10.78;93.42
41712;BME280;27399;51.516;13.670;2023-04-15T03:31:22;99267.47;;;10.82;93.11
41712;BME280;27399;51.516;13.670;2023-04-15T03:33:48;99260.19;;;10.88;92.92
41712;BME280;27399;51.516;13.670;2023-04-15T03:36:15;99257.72;;;10.81;93.61
41712;BME280;27399;51.516;13.670;2023-04-15T03:38:41;99263.06;;;10.81;93.56
41712;BME280;27399;51.516;13.670;2023-04-15T03:41:07;99258.56;;;10.82;93.77
41712;BME280;27399;51.516;13.670;2023-04-15T03:43:33;99255.19;;;10.77;93.91
41712;BME280;27399;51.516;13.670;2023-04-15T03:45:59;99257.59;;;10.86;93.48
41712;BME280;27399;51.516;13.670;2023-04-15T03:48:25;99241.44;;;10.91;93.23
41712;BME280;27399;51.516;13.670;2023-04-15T03:50:51;99248.81;;;10.81;93.81
41712;BME280;27399;51.516;13.670;2023-04-15T03:53:16;99241.38;;;10.94;92.92
41712;BME280;27399;51.516;13.670;2023-04-15T03:55:42;99248.56;;;10.90;93.37
41712;BME280;27399;51.516;13.670;2023-04-15T03:58:09;99256.66;;;10.87;93.67
41712;BME280;27399;51.516;13.670;2023-04-15T04:00:37;99255.28;;;11.04;92.28
41712;BME280;27399;51.516;13.670;2023-04-15T04:03:03;99248.31;;;10.99;93.26
41712;BME280;27399;51.516;13.670;2023-04-15T04:05:29;99252.72;;;11.00;93.11
41712;BME280;27399;51.516;13.670;2023-04-15T04:07:55;99264.47;;;10.95;94.01
41712;BME280;27399;51.516;13.670;2023-04-15T04:10:21;99256.47;;;10.93;93.91
41712;BME280;27399;51.516;13.670;2023-04-15T04:12:46;99264.56;;;10.90;94.57
41712;BME280;27399;51.516;13.670;2023-04-15T04:15:12;99262.88;;;10.88;94.30
41712;BME280;27399;51.516;13.670;2023-04-15T04:17:38;99260.81;;;10.97;94.38
41712;BME280;27399;51.516;13.670;2023-04-15T04:20:04;99256.31;;;10.99;93.99
41712;BME280;27399;51.516;13.670;2023-04-15T04:22:30;99264.97;;;11.08;93.21
41712;BME280;27399;51.516;13.670;2023-04-15T04:24:55;99257.63;;;11.16;92.41
41712;BME280;27399;51.516;13.670;2023-04-15T04:27:24;99255.03;;;11.13;93.54
41712;BME280;27399;51.516;13.670;2023-04-15T04:29:50;99250.78;;;11.06;93.83
41712;BME280;27399;51.516;13.670;2023-04-15T04:32:16;99254.09;;;11.14;93.29
41712;BME280;27399;51.516;13.670;2023-04-15T04:34:42;99263.13;;;11.10;94.02
41712;BME280;27399;51.516;13.670;2023-04-15T04:37:07;99255.88;;;11.15;93.78
41712;BME280;27399;51.516;13.670;2023-04-15T04:39:33;99252.22;;;11.18;93.67
41712;BME280;27399;51.516;13.670;2023-04-15T04:41:58;99254.22;;;11.11;94.22
41712;BME280;27399;51.516;13.670;2023-04-15T04:44:24;99256.75;;;11.15;93.82
41712;BME280;27399;51.516;13.670;2023-04-15T04:46:49;99248.78;;;11.14;93.67
41712;BME280;27399;51.516;13.670;2023-04-15T04:49:15;99259.31;;;11.19;93.68
41712;BME280;27399;51.516;13.670;2023-04-15T04:51:41;99255.59;;;11.24;93.10
41712;BME280;27399;51.516;13.670;2023-04-15T04:54:06;99249.41;;;11.22;93.77
41712;BME280;27399;51.516;13.670;2023-04-15T04:56:32;99258.38;;;11.20;94.10
41712;BME280;27399;51.516;13.670;2023-04-15T04:58:59;99259.38;;;11.17;94.35
41712;BME280;27399;51.516;13.670;2023-04-15T05:01:24;99256.41;;;11.26;93.76
41712;BME280;27399;51.516;13.670;2023-04-15T05:03:52;99268.22;;;11.19;94.68
41712;BME280;27399;51.516;13.670;2023-04-15T05:06:17;99260.97;;;11.23;94.50
41712;BME280;27399;51.516;13.670;2023-04-15T05:08:43;99256.41;;;11.26;93.94
41712;BME280;27399;51.516;13.670;2023-04-15T05:11:11;99258.25;;;11.24;94.51
41712;BME280;27399;51.516;13.670;2023-04-15T05:13:37;99255.59;;;11.24;94.61
41712;BME280;27399;51.516;13.670;2023-04-15T05:16:06;99244.91;;;11.24;94.37
41712;BME280;27399;51.516;13.670;2023-04-15T05:18:32;99258.88;;;11.32;93.98
41712;BME280;27399;51.516;13.670;2023-04-15T05:20:58;99262.59;;;11.28;94.20
41712;BME280;27399;51.516;13.670;2023-04-15T05:23:24;99264.22;;;11.32;94.00
41712;BME280;27399;51.516;13.670;2023-04-15T05:25:50;99259.97;;;11.27;94.40
41712;BME280;27399;51.516;13.670;2023-04-15T05:28:15;99244.47;;;11.10;94.82
41712;BME280;27399;51.516;13.670;2023-04-15T05:30:41;99261.75;;;11.26;94.61
41712;BME280;27399;51.516;13.670;2023-04-15T05:33:07;99265.19;;;11.30;94.76
41712;BME280;27399;51.516;13.670;2023-04-15T05:35:33;99269.47;;;11.36;94.42
41712;BME280;27399;51.516;13.670;2023-04-15T05:37:58;99269.56;;;11.32;94.47
41712;BME280;27399;51.516;13.670;2023-04-15T05:40:24;99272.00;;;11.42;93.84
41712;BME280;27399;51.516;13.670;2023-04-15T05:42:50;99273.69;;;11.43;94.39
41712;BME280;27399;51.516;13.670;2023-04-15T05:45:16;99274.78;;;11.37;94.76
41712;BME280;27399;51.516;13.670;2023-04-15T05:47:42;99277.31;;;11.42;94.51
41712;BME280;27399;51.516;13.670;2023-04-15T05:50:07;99272.78;;;11.44;94.45
41712;BME280;27399;51.516;13.670;2023-04-15T05:52:33;99272.53;;;11.53;93.17
41712;BME280;27399;51.516;13.670;2023-04-15T05:54:59;99272.84;;;11.42;94.05
41712;BME280;27399;51.516;13.670;2023-04-15T05:57:24;99277.03;;;11.51;94.33
41712;BME280;27399;51.516;13.670;2023-04-15T05:59:50;99280.47;;;11.55;93.83
41712;BME280;27399;51.516;13.670;2023-04-15T06:02:17;99285.22;;;11.45;95.17
41712;BME280;27399;51.516;13.670;2023-04-15T06:04:42;99287.84;;;11.46;95.13
41712;BME280;27399;51.516;13.670;2023-04-15T06:07:08;99296.56;;;11.53;94.09
41712;BME280;27399;51.516;13.670;2023-04-15T06:09:34;99297.47;;;11.52;95.19
41712;BME280;27399;51.516;13.670;2023-04-15T06:12:00;99290.34;;;11.53;93.98
41712;BME280;27399;51.516;13.670;2023-04-15T06:14:26;99294.84;;;11.51;95.34
41712;BME280;27399;51.516;13.670;2023-04-15T06:16:52;99294.69;;;11.55;94.37
41712;BME280;27399;51.516;13.670;2023-04-15T06:19:18;99301.06;;;11.51;95.19
41712;BME280;27399;51.516;13.670;2023-04-15T06:21:44;99294.81;;;11.52;94.98
41712;BME280;27399;51.516;13.670;2023-04-15T06:24:11;99293.59;;;11.62;93.55
41712;BME280;27399;51.516;13.670;2023-04-15T06:26:36;99299.91;;;11.60;94.61
41712;BME280;27399;51.516;13.670;2023-04-15T06:29:02;99296.38;;;11.59;94.69
41712;BME280;27399;51.516;13.670;2023-04-15T06:31:29;99294.84;;;11.51;96.05
41712;BME280;27399;51.516;13.670;2023-04-15T06:33:54;99298.28;;;11.54;95.95
41712;BME280;27399;51.516;13.670;2023-04-15T06:36:20;99302.75;;;11.54;95.59
41712;BME280;27399;51.516;13.670;2023-04-15T06:38:46;99299.81;;;11.63;94.62
41712;BME280;27399;51.516;13.670;2023-04-15T06:41:11;99302.53;;;11.61;94.78
41712;BME280;27399;51.516;13.670;2023-04-15T06:43:38;99302.56;;;11.60;94.97
41712;BME280;27399;51.516;13.670;2023-04-15T06:46:04;99309.06;;;11.51;96.46
41712;BME280;27399;51.516;13.670;2023-04-15T06:48:29;99306.97;;;11.61;95.72
41712;BME280;27399;51.516;13.670;2023-04-15T06:50:55;99302.63;;;11.58;95.84
41712;BME280;27399;51.516;13.670;2023-04-15T06:53:24;99307.69;;;11.68;94.81
41712;BME280;27399;51.516;13.670;2023-04-15T06:55:50;99310.69;;;11.57;95.81
41712;BME280;27399;51.516;13.670;2023-04-15T06:58:15;99313.00;;;11.68;95.37
41712;BME280;27399;51.516;13.670;2023-04-15T07:00:41;99309.03;;;11.53;96.43
41712;BME280;27399;51.516;13.670;2023-04-15T07:03:07;99319.28;;;11.67;95.16
41712;BME280;27399;51.516;13.670;2023-04-15T07:05:35;99323.78;;;11.65;95.38
41712;BME280;27399;51.516;13.670;2023-04-15T07:08:00;99323.06;;;11.59;96.57
41712;BME280;27399;51.516;13.670;2023-04-15T07:10:26;99312.47;;;11.56;96.80
41712;BME280;27399;51.516;13.670;2023-04-15T07:12:52;99324.03;;;11.57;96.58
41712;BME280;27399;51.516;13.670;2023-04-15T07:15:17;99331.72;;;11.68;95.52
41712;BME280;27399;51.516;13.670;2023-04-15T07:17:43;99332.19;;;11.52;96.90
41712;BME280;27399;51.516;13.670;2023-04-15T07:20:09;99329.88;;;11.70;95.16
41712;BME280;27399;51.516;13.670;2023-04-15T07:22:34;99342.25;;;11.72;95.01
41712;BME280;27399;51.516;13.670;2023-04-15T07:25:00;99341.47;;;11.69;95.58
41712;BME280;27399;51.516;13.670;2023-04-15T07:27:26;99341.16;;;11.80;94.75
41712;BME280;27399;51.516;13.670;2023-04-15T07:29:52;99342.84;;;11.82;94.90
41712;BME280;27399;51.516;13.670;2023-04-15T07:32:18;99346.44;;;11.81;94.43
41712;BME280;27399;51.516;13.670;2023-04-15T07:34:43;99341.03;;;11.84;94.38
41712;BME280;27399;51.516;13.670;2023-04-15T07:37:09;99348.19;;;11.82;95.29
41712;BME280;27399;51.516;13.670;2023-04-15T07:39:35;99337.88;;;11.70;95.53
41712;BME280;27399;51.516;13.670;2023-04-15T07:42:01;99341.94;;;11.83;95.67
41712;BME280;27399;51.516;13.670;2023-04-15T07:44:28;99342.09;;;11.78;95.05
41712;BME280;27399;51.516;13.670;2023-04-15T07:46:55;99345.41;;;11.85;94.63
41712;BME280;27399;51.516;13.670;2023-04-15T07:49:21;99348.19;;;11.82;95.04
41712;BME280;27399;51.516;13.670;2023-04-15T07:51:47;99359.75;;;11.83;95.54
41712;BME280;27399;51.516;13.670;2023-04-15T07:54:16;99353.91;;;11.70;96.57
41712;BME280;27399;51.516;13.670;2023-04-15T07:56:41;99358.06;;;11.80;95.45
41712;BME280;27399;51.516;13.670;2023-04-15T07:59:07;99358.75;;;11.87;94.84
41712;BME280;27399;51.516;13.670;2023-04-15T08:01:34;99364.50;;;11.73;96.10
41712;BME280;27399;51.516;13.670;2023-04-15T08:04:00;99368.50;;;11.88;95.53
41712;BME280;27399;51.516;13.670;2023-04-15T08:06:26;99366.91;;;11.82;96.00
41712;BME280;27399;51.516;13.670;2023-04-15T08:08:52;99364.09;;;11.87;95.54
41712;BME280;27399;51.516;13.670;2023-04-15T08:11:19;99370.19;;;11.90;94.46
41712;BME280;27399;51.516;13.670;2023-04-15T08:13:45;99367.72;;;11.84;96.06
41712;BME280;27399;51.516;13.670;2023-04-15T08:16:20;99380.06;;;11.88;95.49
41712;BME280;27399;51.516;13.670;2023-04-15T08:18:47;99375.50;;;11.92;95.72
41712;BME280;27399;51.516;13.670;2023-04-15T08:21:13;99375.53;;;11.90;95.45
41712;BME280;27399;51.516;13.670;2023-04-15T08:23:39;99380.13;;;11.85;96.12
41712;BME280;27399;51.516;13.670;2023-04-15T08:26:05;99382.59;;;11.93;95.56
41712;BME280;27399;51.516;13.670;2023-04-15T08:28:31;99394.00;;;12.00;95.11
41712;BME280;27399;51.516;13.670;2023-04-15T08:30:57;99386.03;;;11.97;95.64
41712;BME280;27399;51.516;13.670;2023-04-15T08:33:23;99393.84;;;12.04;94.49
41712;BME280;27399;51.516;13.670;2023-04-15T08:35:48;99394.94;;;11.97;95.75
41712;BME280;27399;51.516;13.670;2023-04-15T08:38:14;99388.69;;;11.97;96.54
41712;BME280;27399;51.516;13.670;2023-04-15T08:40:41;99389.56;;;11.99;95.32
41712;BME280;27399;51.516;13.670;2023-04-15T08:43:14;99390.19;;;12.07;95.42
41712;BME280;27399;51.516;13.670;2023-04-15T08:49:11;99406.28;;;12.05;95.12
41712;BME280;27399;51.516;13.670;2023-04-15T08:51:40;99412.75;;;11.98;95.48
41712;BME280;27399;51.516;13.670;2023-04-15T08:54:07;99408.03;;;12.06;95.81
41712;BME280;27399;51.516;13.670;2023-04-15T08:56:33;99416.47;;;11.91;95.98
41712;BME280;27399;51.516;13.670;2023-04-15T08:59:00;99419.72;;;12.04;95.68
41712;BME280;27399;51.516;13.670;2023-04-15T09:01:26;99437.03;;;11.89;95.92
41712;BME280;27399;51.516;13.670;2023-04-15T09:03:53;99432.00;;;11.78;94.86
41712;BME280;27399;51.516;13.670;2023-04-15T09:06:20;99430.53;;;11.68;95.64
41712;BME280;27399;51.516;13.670;2023-04-15T09:08:49;99434.41;;;11.87;94.53
41712;BME280;27399;51.516;13.670;2023-04-15T09:11:16;99427.81;;;11.69;95.32
41712;BME280;27399;51.516;13.670;2023-04-15T09:13:44;99440.22;;;11.70;93.83
41712;BME280;27399;51.516;13.670;2023-04-15T09:16:12;99449.22;;;11.68;94.31
41712;BME280;27399;51.516;13.670;2023-04-15T09:18:38;99448.38;;;11.66;93.96
41712;BME280;27399;51.516;13.670;2023-04-15T09:21:09;99451.03;;;11.67;93.91
41712;BME280;27399;51.516;13.670;2023-04-15T09:23:59;99457.31;;;11.65;93.95
41712;BME280;27399;51.516;13.670;2023-04-15T09:26:35;99467.97;;;11.66;93.35
41712;BME280;27399;51.516;13.670;2023-04-15T09:29:10;99461.34;;;11.48;94.59
41712;BME280;27399;51.516;13.670;2023-04-15T09:31:40;99463.69;;;11.27;95.90
41712;BME280;27399;51.516;13.670;2023-04-15T09:34:06;99465.84;;;11.46;93.85
41712;BME280;27399;51.516;13.670;2023-04-15T09:39:14;99485.31;;;11.50;94.59
41712;BME280;27399;51.516;13.670;2023-04-15T09:41:40;99489.63;;;11.55;93.93
41712;BME280;27399;51.516;13.670;2023-04-15T09:44:06;99486.81;;;11.60;93.81
41712;BME280;27399;51.516;13.670;2023-04-15T09:46:44;99487.00;;;11.54;94.10
41712;BME280;27399;51.516;13.670;2023-04-15T09:49:10;99485.56;;;11.40;93.39
41712;BME280;27399;51.516;13.670;2023-04-15T09:51:36;99499.72;;;11.44;93.81
41712;BME280;27399;51.516;13.670;2023-04-15T09:54:02;99492.59;;;11.44;94.35
41712;BME280;27399;51.516;13.670;2023-04-15T09:56:34;99494.53;;;11.38;94.09
41712;BME280;27399;51.516;13.670;2023-04-15T09:59:06;99492.34;;;11.54;93.15
41712;BME280;27399;51.516;13.670;2023-04-15T10:01:33;99504.00;;;11.51;93.84
41712;BME280;27399;51.516;13.670;2023-04-15T10:04:02;99504.81;;;11.53;93.63
41712;BME280;27399;51.516;13.670;2023-04-15T10:06:28;99498.66;;;11.51;93.78
41712;BME280;27399;51.516;13.670;2023-04-15T10:08:58;99505.75;;;11.52;94.05
41712;BME280;27399;51.516;13.670;2023-04-15T10:11:27;99503.94;;;11.53;93.41
41712;BME280;27399;51.516;13.670;2023-04-15T10:13:53;99507.25;;;11.62;93.51
41712;BME280;27399;51.516;13.670;2023-04-15T10:16:20;99509.19;;;11.56;93.94
41712;BME280;27399;51.516;13.670;2023-04-15T10:18:52;99518.13;;;11.55;92.97
41712;BME280;27399;51.516;13.670;2023-04-15T10:21:19;99517.09;;;11.60;93.03
41712;BME280;27399;51.516;13.670;2023-04-15T10:23:47;99518.84;;;11.60;93.94
41712;BME280;27399;51.516;13.670;2023-04-15T10:26:14;99515.16;;;11.66;93.73
41712;BME280;27399;51.516;13.670;2023-04-15T10:28:42;99521.41;;;11.65;94.00
41712;BME280;27399;51.516;13.670;2023-04-15T10:31:10;99523.16;;;11.66;93.97
41712;BME280;27399;51.516;13.670;2023-04-15T10:33:38;99526.09;;;11.56;94.54
41712;BME280;27399;51.516;13.670;2023-04-15T10:36:04;99527.56;;;11.68;93.13
41712;BME280;27399;51.516;13.670;2023-04-15T10:38:34;99533.75;;;11.69;94.52
41712;BME280;27399;51.516;13.670;2023-04-15T10:41:14;99533.94;;;11.62;94.39
41712;BME280;27399;51.516;13.670;2023-04-15T10:43:48;99533.84;;;11.66;94.54
41712;BME280;27399;51.516;13.670;2023-04-15T10:47:00;99534.56;;;11.72;94.14
41712;BME280;27399;51.516;13.670;2023-04-15T10:49:14;99539.44;;;11.56;94.98
41712;BME280;27399;51.516;13.670;2023-04-15T10:51:46;99542.44;;;11.77;93.00
41712;BME280;27399;51.516;13.670;2023-04-15T10:57:07;99532.66;;;11.76;92.60
41712;BME280;27399;51.516;13.670;2023-04-15T10:59:37;99551.16;;;11.84;92.16
41712;BME280;27399;51.516;13.670;2023-04-15T11:02:05;99550.44;;;11.77;93.05
41712;BME280;27399;51.516;13.670;2023-04-15T11:07:48;99556.00;;;12.02;91.47
41712;BME280;27399;51.516;13.670;2023-04-15T11:12:46;99555.84;;;11.75;94.07
41712;BME280;27399;51.516;13.670;2023-04-15T11:17:50;99555.25;;;11.97;89.14
41712;BME280;27399;51.516;13.670;2023-04-15T11:20:16;99566.19;;;11.88;92.87
41712;BME280;27399;51.516;13.670;2023-04-15T11:23:00;99578.53;;;11.92;92.37
41712;BME280;27399;51.516;13.670;2023-04-15T11:25:31;99583.88;;;11.92;92.91
41712;BME280;27399;51.516;13.670;2023-04-15T11:27:59;99581.81;;;12.03;92.61
41712;BME280;27399;51.516;13.670;2023-04-15T11:30:31;99587.44;;;11.92;90.00
41712;BME280;27399;51.516;13.670;2023-04-15T11:32:59;99591.56;;;12.06;91.41
41712;BME280;27399;51.516;13.670;2023-04-15T11:35:25;99602.22;;;12.07;91.89
41712;BME280;27399;51.516;13.670;2023-04-15T11:37:51;99597.91;;;12.02;91.94
41712;BME280;27399;51.516;13.670;2023-04-15T11:40:28;99601.66;;;11.94;92.90
41712;BME280;27399;51.516;13.670;2023-04-15T11:45:32;99614.03;;;11.97;92.47
41712;BME280;27399;51.516;13.670;2023-04-15T11:48:08;99617.91;;;11.85;91.90
41712;BME280;27399;51.516;13.670;2023-04-15T11:50:35;99615.66;;;11.70;92.93
41712;BME280;27399;51.516;13.670;2023-04-15T11:53:03;99620.16;;;11.68;93.70
41712;BME280;27399;51.516;13.670;2023-04-15T11:55:30;99620.75;;;11.79;92.16
41712;BME280;27399;51.516;13.670;2023-04-15T12:00:35;99626.34;;;11.70;91.76
41712;BME280;27399;51.516;13.670;2023-04-15T12:06:14;99630.16;;;11.59;92.12
41712;BME280;27399;51.516;13.670;2023-04-15T12:09:15;99625.84;;;11.88;91.38
41712;BME280;27399;51.516;13.670;2023-04-15T12:11:55;99631.22;;;11.87;91.08
41712;BME280;27399;51.516;13.670;2023-04-15T12:14:27;99631.25;;;11.85;90.88
41712;BME280;27399;51.516;13.670;2023-04-15T12:16:57;99633.72;;;11.93;93.06
41712;BME280;27399;51.516;13.670;2023-04-15T12:19:37;99634.44;;;12.01;91.95
41712;BME280;27399;51.516;13.670;2023-04-15T12:22:08;99637.25;;;11.95;92.03
41712;BME280;27399;51.516;13.670;2023-04-15T12:24:36;99635.69;;;11.86;91.63
41712;BME280;27399;51.516;13.670;2023-04-15T12:27:03;99636.94;;;12.07;92.96
41712;BME280;27399;51.516;13.670;2023-04-15T12:29:30;99635.97;;;12.10;91.54
41712;BME280;27399;51.516;13.670;2023-04-15T12:32:02;99642.56;;;12.30;90.66
41712;BME280;27399;51.516;13.670;2023-04-15T12:34:34;99642.09;;;12.15;91.28
41712;BME280;27399;51.516;13.670;2023-04-15T12:37:02;99645.22;;;12.31;91.41
41712;BME280;27399;51.516;13.670;2023-04-15T12:39:30;99643.41;;;12.32;90.12
41712;BME280;27399;51.516;13.670;2023-04-15T12:41:57;99645.94;;;12.38;91.25
41712;BME280;27399;51.516;13.670;2023-04-15T12:44:24;99647.72;;;12.04;89.05
41712;BME280;27399;51.516;13.670;2023-04-15T12:46:51;99656.50;;;12.09;89.24
41712;BME280;27399;51.516;13.670;2023-04-15T12:49:20;99660.03;;;12.10;91.78
41712;BME280;27399;51.516;13.670;2023-04-15T12:51:48;99664.88;;;12.29;90.11
41712;BME280;27399;51.516;13.670;2023-04-15T12:54:18;99655.72;;;12.06;88.46
41712;BME280;27399;51.516;13.670;2023-04-15T12:56:45;99674.25;;;12.12;90.18
41712;BME280;27399;51.516;13.670;2023-04-15T12:59:11;99681.03;;;12.26;88.26
41712;BME280;27399;51.516;13.670;2023-04-15T13:01:37;99688.78;;;12.35;87.73
41712;BME280;27399;51.516;13.670;2023-04-15T13:04:03;99681.75;;;12.31;89.11
41712;BME280;27399;51.516;13.670;2023-04-15T13:06:29;99688.06;;;12.28;88.89
41712;BME280;27399;51.516;13.670;2023-04-15T13:09:00;99690.44;;;12.39;88.24
41712;BME280;27399;51.516;13.670;2023-04-15T13:11:28;99694.06;;;12.38;87.80
41712;BME280;27399;51.516;13.670;2023-04-15T13:14:03;99694.72;;;12.13;88.05
41712;BME280;27399;51.516;13.670;2023-04-15T13:16:30;99684.75;;;12.20;87.07